METAR Formatted Surface Weather Observation
Issued by NWS

Home | Current Version | Previous Version | Text Only | Print | Product List | Glossary On
Versions: 1 2 3 4 5 6
000
SAUS42 KTAE 220322
MTR1J0
METAR K1J0 220258Z AUTO 00000KT 10SM CLR 24/23 A3005 RMK AO2 SLP133
T02390233 50009 $



USA.gov is the U.S. government's official web portal to all federal, state and local government web resources and services.